createdAt,value
2022-08-12T00:01:06.667Z,20.56
2022-08-12T00:03:53.224Z,20.56
2022-08-12T00:06:40.173Z,20.38
2022-08-12T00:09:26.932Z,20.27
2022-08-12T00:12:13.641Z,20.24
2022-08-12T00:15:02.598Z,20.18
2022-08-12T00:17:50.260Z,20.25
2022-08-12T00:20:37.026Z,20.32
2022-08-12T00:23:23.163Z,20.07
2022-08-12T00:26:22.255Z,19.82
2022-08-12T00:29:13.069Z,19.77
2022-08-12T00:32:01.045Z,19.88
2022-08-12T00:34:50.956Z,19.89
2022-08-12T00:37:38.878Z,19.97
2022-08-12T00:40:29.105Z,19.88
2022-08-12T00:42:59.039Z,19.83
2022-08-12T00:45:48.372Z,19.61
2022-08-12T00:48:17.472Z,19.95
2022-08-12T00:50:53.430Z,19.57
2022-08-12T00:53:23.311Z,19.73
2022-08-12T00:55:57.036Z,19.85
2022-08-12T00:58:28.533Z,19.66
2022-08-12T01:01:04.102Z,19.78
2022-08-12T01:03:50.486Z,19.60
2022-08-12T01:06:40.284Z,19.49
2022-08-12T01:09:27.678Z,19.43
2022-08-12T01:11:56.806Z,19.58
2022-08-12T01:14:25.471Z,19.68
2022-08-12T01:16:54.301Z,19.41
2022-08-12T01:19:25.028Z,19.28
2022-08-12T01:22:23.445Z,19.34
2022-08-12T01:25:03.869Z,19.31
2022-08-12T01:27:43.689Z,19.03
2022-08-12T01:30:16.242Z,18.85
2022-08-12T01:32:48.342Z,18.86
2022-08-12T01:35:18.638Z,18.96
2022-08-12T01:37:53.336Z,18.90
2022-08-12T01:40:31.678Z,18.95
2022-08-12T01:43:10.528Z,18.98
2022-08-12T01:45:54.556Z,18.94
2022-08-12T01:48:50.547Z,18.83
2022-08-12T01:52:21.440Z,18.81
2022-08-12T01:54:44.324Z,18.81
2022-08-12T01:57:58.329Z,18.79
2022-08-12T02:00:13.571Z,18.64
2022-08-12T02:02:49.244Z,18.49
2022-08-12T02:05:44.017Z,18.49
2022-08-12T02:08:45.566Z,18.42
2022-08-12T02:11:23.158Z,18.46
2022-08-12T02:14:38.085Z,18.53
2022-08-12T02:17:55.104Z,18.54
2022-08-12T02:20:35.369Z,18.62
2022-08-12T02:23:19.413Z,18.53
2022-08-12T02:25:52.909Z,18.57
2022-08-12T02:28:23.695Z,18.55
2022-08-12T02:30:52.127Z,18.63
2022-08-12T02:33:23.494Z,18.45
2022-08-12T02:35:52.589Z,18.34
2022-08-12T02:38:22.717Z,18.13
2022-08-12T02:40:55.767Z,18.34
2022-08-12T02:43:35.593Z,18.41
2022-08-12T02:46:10.449Z,18.37
2022-08-12T02:48:50.034Z,18.61
2022-08-12T02:51:21.287Z,18.33
2022-08-12T02:54:04.698Z,18.36
2022-08-12T02:56:37.506Z,18.52
2022-08-12T02:59:12.178Z,18.43
2022-08-12T03:01:49.750Z,18.45
2022-08-12T03:04:27.467Z,18.42
2022-08-12T03:07:16.577Z,18.35
2022-08-12T03:10:04.207Z,18.47
2022-08-12T03:12:49.128Z,18.28
2022-08-12T03:15:22.961Z,18.30
2022-08-12T03:18:23.675Z,18.23
2022-08-12T03:20:46.052Z,18.19
2022-08-12T03:23:19.326Z,18.00
2022-08-12T03:25:59.350Z,17.92
2022-08-12T03:28:48.768Z,18.11
2022-08-12T03:31:18.708Z,18.08
2022-08-12T03:34:01.427Z,18.00
2022-08-12T03:36:34.790Z,17.96
2022-08-12T03:39:35.786Z,18.16
2022-08-12T03:42:21.849Z,18.24
2022-08-12T03:45:22.695Z,18.26
2022-08-12T03:48:19.316Z,18.13
2022-08-12T03:51:06.542Z,18.17
2022-08-12T03:53:56.137Z,18.07
2022-08-12T03:56:42.298Z,17.91
2022-08-12T03:59:28.561Z,18.03
2022-08-12T04:01:58.510Z,18.02
2022-08-12T04:04:29.510Z,18.19
2022-08-12T04:06:59.121Z,18.20
2022-08-12T04:09:29.925Z,18.10
2022-08-12T04:12:16.289Z,18.07
2022-08-12T04:14:44.717Z,18.14
2022-08-12T04:17:13.396Z,18.04
2022-08-12T04:19:42.343Z,18.01
2022-08-12T04:22:12.520Z,18.09
2022-08-12T04:24:42.841Z,18.03
2022-08-12T04:27:16.333Z,17.96
2022-08-12T04:30:32.063Z,17.97
2022-08-12T04:32:34.415Z,18.05
2022-08-12T04:35:03.951Z,17.82
2022-08-12T04:37:59.454Z,17.61
2022-08-12T04:40:28.024Z,17.68
2022-08-12T04:42:58.250Z,17.63
2022-08-12T04:45:26.488Z,17.79
2022-08-12T04:47:54.977Z,17.54
2022-08-12T04:50:35.407Z,17.61
2022-08-12T04:53:08.261Z,17.60
2022-08-12T04:55:39.733Z,17.74
2022-08-12T04:58:08.883Z,17.43
2022-08-12T05:00:38.870Z,17.33
2022-08-12T05:03:08.868Z,17.51
2022-08-12T05:05:38.601Z,17.43
2022-08-12T05:08:13.437Z,17.59
2022-08-12T05:10:45.319Z,17.79
2022-08-12T05:13:18.174Z,17.94
2022-08-12T05:16:02.613Z,18.17
2022-08-12T05:18:35.345Z,18.38
2022-08-12T05:21:09.502Z,18.78
2022-08-12T05:23:39.555Z,18.99
2022-08-12T05:26:09.917Z,18.98
2022-08-12T05:28:38.954Z,19.39
2022-08-12T05:31:07.747Z,19.52
2022-08-12T05:33:40.198Z,19.79
2022-08-12T05:36:10.414Z,20.19
2022-08-12T05:38:56.378Z,20.97
2022-08-12T05:41:27.946Z,22.01
2022-08-12T05:43:58.419Z,22.64
2022-08-12T05:46:28.999Z,23.25
2022-08-12T05:48:58.948Z,24.00
2022-08-12T05:51:39.817Z,23.62
2022-08-12T05:54:11.054Z,23.65
2022-08-12T05:56:41.951Z,23.86
2022-08-12T05:59:13.989Z,23.47
2022-08-12T06:02:12.478Z,22.95
2022-08-12T06:04:33.708Z,22.79
2022-08-12T06:07:02.727Z,22.52
2022-08-12T06:09:51.335Z,22.45
2022-08-12T06:12:23.665Z,22.13
2022-08-12T06:14:51.805Z,21.92
2022-08-12T06:17:20.230Z,21.83
2022-08-12T06:20:27.228Z,21.73
2022-08-12T06:22:37.426Z,21.72
2022-08-12T06:25:07.115Z,21.74
2022-08-12T06:28:06.544Z,21.69
2022-08-12T06:30:39.384Z,21.67
2022-08-12T06:33:22.048Z,21.63
2022-08-12T06:35:52.507Z,21.90
2022-08-12T06:38:27.645Z,21.88
2022-08-12T06:41:16.673Z,22.15
2022-08-12T06:44:07.084Z,22.29
2022-08-12T06:46:38.647Z,22.42
2022-08-12T06:49:08.620Z,22.46
2022-08-12T06:51:36.962Z,22.56
2022-08-12T06:54:05.535Z,22.74
2022-08-12T06:57:02.629Z,22.80
2022-08-12T06:59:24.321Z,23.03
2022-08-12T07:01:52.677Z,23.06
2022-08-12T07:04:39.058Z,23.18
2022-08-12T07:07:10.640Z,23.30
2022-08-12T07:10:06.558Z,23.42
2022-08-12T07:12:28.797Z,23.58
2022-08-12T07:14:59.027Z,23.85
2022-08-12T07:17:31.522Z,23.92
2022-08-12T07:20:04.258Z,23.90
2022-08-12T07:22:33.348Z,23.90
2022-08-12T07:25:19.135Z,24.19
2022-08-12T07:27:47.821Z,24.31
2022-08-12T07:30:17.623Z,24.51
2022-08-12T07:32:47.498Z,24.51
2022-08-12T07:35:17.516Z,24.57
2022-08-12T07:37:47.299Z,24.57
2022-08-12T07:40:16.257Z,24.69
2022-08-12T07:42:44.660Z,24.87
2022-08-12T07:45:13.972Z,25.02
2022-08-12T07:47:43.913Z,25.16
2022-08-12T07:50:16.139Z,25.31
2022-08-12T07:52:48.415Z,25.31
2022-08-12T07:55:19.195Z,25.42
2022-08-12T07:57:59.501Z,25.46
2022-08-12T08:00:30.381Z,25.51
2022-08-12T08:03:00.123Z,25.52
2022-08-12T08:05:34.106Z,25.71
2022-08-12T08:08:04.859Z,25.74
2022-08-12T08:10:33.349Z,25.82
2022-08-12T08:13:05.082Z,25.91
2022-08-12T08:18:27.513Z,26.12
2022-08-12T08:20:57.710Z,26.45
2022-08-12T08:23:41.358Z,26.57
2022-08-12T08:26:10.347Z,26.71
2022-08-12T08:28:39.071Z,26.86
2022-08-12T08:31:07.627Z,26.71
2022-08-12T08:34:04.205Z,26.80
2022-08-12T08:36:25.883Z,27.12
2022-08-12T08:38:58.447Z,27.33
2022-08-12T08:42:15.405Z,27.38
2022-08-12T08:44:38.123Z,27.52
2022-08-12T08:47:07.571Z,27.50
2022-08-12T08:49:38.424Z,27.60
2022-08-12T08:52:11.404Z,27.55
2022-08-12T08:54:40.493Z,27.64
2022-08-12T08:57:09.639Z,27.87
2022-08-12T08:59:37.900Z,28.11
2022-08-12T09:02:07.619Z,28.07
2022-08-12T09:05:12.984Z,27.74
2022-08-12T09:07:51.598Z,27.95
2022-08-12T09:10:30.957Z,27.97
2022-08-12T09:13:23.127Z,28.51
2022-08-12T09:15:56.135Z,28.49
2022-08-12T09:18:33.277Z,28.40
2022-08-12T09:21:03.830Z,28.51
2022-08-12T09:23:59.414Z,28.31
2022-08-12T09:26:28.902Z,28.33
2022-08-12T09:28:57.740Z,28.40
2022-08-12T09:32:06.482Z,28.52
2022-08-12T09:34:28.906Z,28.89
2022-08-12T09:37:19.587Z,29.06
2022-08-12T09:40:04.395Z,29.36
2022-08-12T09:43:16.661Z,29.52
2022-08-12T09:46:19.460Z,29.51
2022-08-12T09:48:39.212Z,29.16
2022-08-12T09:51:16.861Z,29.51
2022-08-12T09:54:09.346Z,29.43
2022-08-12T09:57:00.812Z,29.26
2022-08-12T10:00:15.331Z,29.68
2022-08-12T10:02:42.036Z,29.96
2022-08-12T10:05:13.941Z,29.83
2022-08-12T10:07:46.962Z,29.68
2022-08-12T10:10:22.552Z,29.45
2022-08-12T10:13:17.124Z,29.95
2022-08-12T10:16:05.049Z,30.02
2022-08-12T10:18:36.543Z,29.18
2022-08-12T10:21:23.962Z,29.81
2022-08-12T10:24:05.975Z,30.05
2022-08-12T10:26:55.182Z,29.86
2022-08-12T10:30:37.043Z,30.25
2022-08-12T10:32:44.813Z,29.75
2022-08-12T10:35:16.955Z,29.68
2022-08-12T10:38:38.983Z,30.18
2022-08-12T10:40:55.564Z,30.18
2022-08-12T10:43:55.841Z,30.21
2022-08-12T10:46:31.242Z,30.07
2022-08-12T10:49:06.464Z,29.99
2022-08-12T10:52:31.144Z,30.17
2022-08-12T10:54:40.860Z,30.94
2022-08-12T10:57:18.611Z,30.45
2022-08-12T11:00:30.648Z,30.53
2022-08-12T11:04:19.323Z,29.88
2022-08-12T11:07:09.010Z,30.30
2022-08-12T11:08:41.899Z,30.24
2022-08-12T11:11:17.925Z,30.63
2022-08-12T11:14:06.816Z,31.15
2022-08-12T11:17:06.481Z,31.23
2022-08-12T11:19:46.555Z,30.24
2022-08-12T11:22:15.643Z,31.05
2022-08-12T11:24:51.622Z,31.16
2022-08-12T11:27:20.240Z,31.33
2022-08-12T11:30:02.597Z,30.87
2022-08-12T11:32:38.960Z,31.23
2022-08-12T11:35:11.669Z,31.30
2022-08-12T11:37:58.896Z,30.80
2022-08-12T11:40:28.473Z,30.43
2022-08-12T11:43:17.895Z,30.50
2022-08-12T11:45:46.915Z,30.94
2022-08-12T11:48:17.209Z,31.34
2022-08-12T11:50:47.109Z,31.25
2022-08-12T11:53:57.414Z,31.54
2022-08-12T11:56:07.920Z,31.06
2022-08-12T12:02:04.677Z,31.37
2022-08-12T12:04:29.146Z,31.78
2022-08-12T12:07:07.290Z,31.84
2022-08-12T12:09:52.364Z,31.75
2022-08-12T12:12:22.928Z,31.62
2022-08-12T12:14:54.504Z,32.02
2022-08-12T12:17:24.578Z,32.11
2022-08-12T12:19:55.234Z,31.75
2022-08-12T12:22:27.105Z,32.06
2022-08-12T12:25:09.034Z,32.63
2022-08-12T12:28:04.996Z,32.01
2022-08-12T12:30:35.060Z,32.09
2022-08-12T12:33:05.037Z,32.16
2022-08-12T12:36:18.722Z,32.08
2022-08-12T12:38:25.156Z,32.43
2022-08-12T12:40:54.822Z,32.30
2022-08-12T12:43:42.591Z,32.46
2022-08-12T12:46:11.675Z,32.27
2022-08-12T12:48:44.346Z,32.14
2022-08-12T12:51:49.276Z,32.52
2022-08-12T12:54:08.036Z,32.39
2022-08-12T12:56:42.275Z,32.48
2022-08-12T12:59:55.107Z,32.60
2022-08-12T13:02:07.941Z,32.71
2022-08-12T13:04:38.257Z,33.16
2022-08-12T13:07:08.095Z,32.96
2022-08-12T13:09:37.043Z,33.24
2022-08-12T13:12:10.777Z,33.17
2022-08-12T13:14:39.997Z,33.29
2022-08-12T13:17:11.372Z,32.97
2022-08-12T13:19:46.785Z,32.89
2022-08-12T13:22:23.447Z,32.10
2022-08-12T13:24:56.887Z,32.01
2022-08-12T13:27:35.094Z,32.09
2022-08-12T13:30:11.142Z,32.71
2022-08-12T13:32:42.081Z,32.85
2022-08-12T13:35:20.036Z,32.85
2022-08-12T13:38:02.806Z,32.49
2022-08-12T13:40:34.436Z,32.44
2022-08-12T13:43:06.269Z,32.82
2022-08-12T13:45:36.624Z,32.54
2022-08-12T13:48:07.261Z,32.55
2022-08-12T13:50:38.050Z,32.86
2022-08-12T13:53:23.282Z,32.53
2022-08-12T13:56:01.398Z,31.71
2022-08-12T13:58:34.781Z,32.22
2022-08-12T14:01:06.354Z,32.67
2022-08-12T14:03:50.975Z,33.07
2022-08-12T14:06:21.460Z,32.76
2022-08-12T14:08:55.728Z,33.18
2022-08-12T14:11:25.323Z,33.12
2022-08-12T14:14:05.730Z,33.51
2022-08-12T14:16:49.068Z,33.37
2022-08-12T14:19:24.272Z,33.38
2022-08-12T14:21:58.865Z,33.76
2022-08-12T14:24:40.283Z,33.68
2022-08-12T14:27:11.304Z,33.46
2022-08-12T14:30:04.781Z,33.12
2022-08-12T14:32:34.844Z,32.39
2022-08-12T14:35:06.473Z,32.85
2022-08-12T14:37:56.367Z,32.75
2022-08-12T14:40:29.676Z,32.76
2022-08-12T14:42:59.707Z,32.94
2022-08-12T14:45:45.054Z,33.02
2022-08-12T14:48:24.527Z,33.17
2022-08-12T14:52:16.176Z,32.47
2022-08-12T14:55:24.568Z,32.39
2022-08-12T14:59:56.875Z,32.41
2022-08-12T15:02:29.497Z,32.55
2022-08-12T15:05:03.866Z,32.74
2022-08-12T15:07:43.605Z,32.77
2022-08-12T15:10:30.096Z,33.26
2022-08-12T15:13:06.911Z,33.04
2022-08-12T15:15:43.846Z,32.31
2022-08-12T15:18:21.105Z,32.27
2022-08-12T15:20:52.540Z,32.94
2022-08-12T15:23:29.267Z,33.72
2022-08-12T15:26:05.642Z,32.99
2022-08-12T15:28:36.960Z,33.37
2022-08-12T15:31:21.383Z,32.96
2022-08-12T15:33:58.047Z,33.05
2022-08-12T15:36:53.590Z,33.47
2022-08-12T15:39:17.077Z,32.93
2022-08-12T15:41:49.349Z,33.01
2022-08-12T15:44:38.568Z,32.53
2022-08-12T15:47:09.715Z,32.33
2022-08-12T15:49:54.659Z,32.47
2022-08-12T15:52:29.145Z,32.73
2022-08-12T15:55:05.022Z,33.12
2022-08-12T15:57:35.405Z,32.95
2022-08-12T16:00:09.225Z,32.81
2022-08-12T16:02:52.442Z,32.74
2022-08-12T16:06:11.488Z,33.16
2022-08-12T16:08:19.776Z,32.94
2022-08-12T16:10:56.330Z,32.57
2022-08-12T16:13:34.904Z,32.09
2022-08-12T16:16:22.716Z,31.78
2022-08-12T16:18:59.679Z,32.32
2022-08-12T16:21:51.557Z,32.43
2022-08-12T16:24:20.590Z,32.92
2022-08-12T16:26:51.387Z,32.45
2022-08-12T16:29:29.469Z,32.27
2022-08-12T16:32:24.391Z,31.94
2022-08-12T16:34:59.864Z,31.40
2022-08-12T16:38:24.615Z,31.81
2022-08-12T16:40:21.829Z,32.14
2022-08-12T16:42:54.077Z,32.16
2022-08-12T16:45:58.151Z,32.30
2022-08-12T16:48:34.145Z,32.37
2022-08-12T16:51:09.456Z,32.08
2022-08-12T16:53:43.905Z,31.72
2022-08-12T16:56:17.331Z,31.40
2022-08-12T16:58:48.038Z,31.30
2022-08-12T17:01:16.760Z,31.13
2022-08-12T17:04:08.604Z,31.37
2022-08-12T17:06:43.366Z,31.03
2022-08-12T17:09:17.346Z,31.05
2022-08-12T17:11:49.353Z,30.99
2022-08-12T17:14:20.333Z,30.85
2022-08-12T17:16:54.823Z,30.70
2022-08-12T17:20:29.302Z,30.85
2022-08-12T17:22:16.425Z,30.83
2022-08-12T17:24:54.500Z,30.62
2022-08-12T17:27:24.614Z,30.65
2022-08-12T17:30:02.144Z,30.66
2022-08-12T17:32:35.806Z,30.63
2022-08-12T17:35:29.579Z,30.59
2022-08-12T17:38:00.530Z,30.61
2022-08-12T17:40:35.608Z,30.51
2022-08-12T17:43:57.664Z,30.60
2022-08-12T17:45:59.575Z,30.53
2022-08-12T17:48:34.683Z,30.52
2022-08-12T17:51:15.481Z,30.39
2022-08-12T17:54:10.493Z,30.32
2022-08-12T17:56:37.296Z,30.29
2022-08-12T17:59:09.621Z,30.32
2022-08-12T18:01:44.305Z,30.32
2022-08-12T18:04:22.958Z,30.28
2022-08-12T18:06:55.841Z,30.24
2022-08-12T18:09:32.025Z,30.12
2022-08-12T18:12:24.517Z,29.99
2022-08-12T18:15:00.632Z,29.85
2022-08-12T18:17:33.125Z,29.74
2022-08-12T18:20:07.658Z,29.75
2022-08-12T18:22:38.673Z,29.70
2022-08-12T18:26:12.516Z,29.72
2022-08-12T18:28:16.771Z,29.70
2022-08-12T18:30:53.014Z,29.63
2022-08-12T18:33:26.025Z,29.59
2022-08-12T18:35:56.749Z,29.54
2022-08-12T18:38:28.274Z,29.45
2022-08-12T18:41:20.738Z,29.39
2022-08-12T18:43:59.338Z,29.19
2022-08-12T18:46:54.309Z,29.09
2022-08-12T18:49:30.626Z,29.07
2022-08-12T18:52:04.323Z,28.96
2022-08-12T18:54:41.405Z,28.85
2022-08-12T18:57:19.837Z,28.78
2022-08-12T19:00:13.212Z,28.70
2022-08-12T19:02:42.618Z,28.59
2022-08-12T19:05:17.468Z,28.55
2022-08-12T19:08:00.664Z,28.57
2022-08-12T19:10:33.156Z,28.47
2022-08-12T19:13:23.455Z,28.24
2022-08-12T19:15:57.835Z,27.83
2022-08-12T19:18:30.059Z,27.57
2022-08-12T19:21:11.960Z,27.27
2022-08-12T19:24:05.104Z,27.03
2022-08-12T19:26:35.163Z,27.03
2022-08-12T19:29:05.398Z,26.77
2022-08-12T19:31:45.397Z,26.79
2022-08-12T19:37:27.252Z,26.57
2022-08-12T19:40:08.931Z,26.65
2022-08-12T19:42:44.880Z,26.88
2022-08-12T19:45:17.482Z,26.89
2022-08-12T19:47:46.923Z,26.80
2022-08-12T19:50:19.606Z,26.75
2022-08-12T19:52:51.365Z,26.68
2022-08-12T19:55:25.595Z,26.65
2022-08-12T19:58:02.996Z,26.50
2022-08-12T20:00:34.502Z,26.54
2022-08-12T20:03:06.303Z,26.53
2022-08-12T20:06:06.684Z,26.60
2022-08-12T20:08:34.039Z,26.56
2022-08-12T20:12:13.983Z,26.49
2022-08-12T20:14:00.456Z,26.22
2022-08-12T20:19:52.927Z,25.94
2022-08-12T20:22:24.129Z,25.76
2022-08-12T20:25:01.570Z,25.44
2022-08-12T20:28:03.106Z,25.41
2022-08-12T20:30:35.130Z,25.31
2022-08-12T20:33:19.175Z,25.22
2022-08-12T20:36:13.464Z,25.11
2022-08-12T20:38:45.954Z,25.06
2022-08-12T20:41:16.826Z,25.02
2022-08-12T20:43:49.382Z,24.91
2022-08-12T20:46:20.497Z,24.95
2022-08-12T20:48:55.259Z,24.89
2022-08-12T20:51:40.463Z,24.76
2022-08-12T20:54:18.457Z,24.84
2022-08-12T20:56:48.587Z,24.96
2022-08-12T20:59:21.411Z,24.87
2022-08-12T21:01:51.370Z,24.65
2022-08-12T21:04:43.871Z,24.74
2022-08-12T21:07:14.511Z,24.58
2022-08-12T21:09:47.409Z,24.30
2022-08-12T21:12:27.834Z,24.17
2022-08-12T21:15:17.312Z,24.30
2022-08-12T21:18:15.315Z,24.26
2022-08-12T21:20:50.210Z,24.16
2022-08-12T21:23:21.200Z,24.03
2022-08-12T21:25:51.009Z,23.96
2022-08-12T21:28:27.744Z,24.04
2022-08-12T21:32:34.795Z,23.75
2022-08-12T21:34:07.960Z,23.93
2022-08-12T21:36:40.246Z,23.75
2022-08-12T21:39:20.674Z,23.72
2022-08-12T21:41:52.246Z,23.38
2022-08-12T21:44:32.501Z,23.45
2022-08-12T21:47:21.271Z,23.21
2022-08-12T21:50:02.917Z,23.45
2022-08-12T21:52:36.906Z,23.38
2022-08-12T21:55:17.228Z,23.20
2022-08-12T21:57:53.627Z,23.03
2022-08-12T22:00:32.438Z,23.15
2022-08-12T22:04:01.626Z,22.98
2022-08-12T22:06:31.235Z,22.99
2022-08-12T22:09:16.233Z,22.71
2022-08-12T22:11:56.214Z,22.59
2022-08-12T22:14:29.238Z,22.69
2022-08-12T22:17:05.181Z,22.87
2022-08-12T22:19:35.405Z,22.79
2022-08-12T22:22:06.246Z,22.62
2022-08-12T22:24:35.293Z,22.42
2022-08-12T22:27:28.286Z,22.54
2022-08-12T22:30:16.794Z,22.45
2022-08-12T22:32:50.192Z,22.29
2022-08-12T22:35:47.657Z,22.27
2022-08-12T22:38:29.040Z,22.10
2022-08-12T22:41:01.905Z,22.21
2022-08-12T22:43:58.887Z,22.21
2022-08-12T22:46:52.873Z,22.26
2022-08-12T22:49:36.392Z,22.29
2022-08-12T22:52:12.910Z,22.29
2022-08-12T22:54:46.283Z,22.15
2022-08-12T22:57:49.015Z,22.15
2022-08-12T23:00:24.448Z,22.16
2022-08-12T23:03:03.021Z,22.05
2022-08-12T23:05:57.547Z,22.09
2022-08-12T23:08:29.799Z,22.03
2022-08-12T23:11:04.729Z,22.08
2022-08-12T23:13:55.294Z,22.01
2022-08-12T23:16:30.818Z,21.68
2022-08-12T23:19:10.967Z,21.49
2022-08-12T23:22:06.165Z,21.47
2022-08-12T23:24:41.030Z,21.14
2022-08-12T23:27:50.574Z,21.16
2022-08-12T23:30:31.981Z,20.96
2022-08-12T23:33:20.377Z,20.84
2022-08-12T23:36:02.537Z,20.99
2022-08-12T23:38:35.579Z,20.66
2022-08-12T23:41:06.887Z,20.80
2022-08-12T23:43:40.046Z,20.81
2022-08-12T23:46:12.449Z,20.79
2022-08-12T23:48:50.392Z,21.03
2022-08-12T23:51:24.777Z,20.95
2022-08-12T23:53:56.143Z,20.71
2022-08-12T23:56:26.174Z,20.84
2022-08-12T23:58:58.635Z,20.84
